Greenville, California
Current Conditions -  °F | °C
As of 8:15 PM on Wednesday 22 Oct 2014 (Local Time) from KCIC Reporting Station
Few Clouds Few Clouds  
Wind Chill: 66°   Ceiling: Unl
Heat Index: 66°   Visibility: 10mi
Dew Point: 41°   Wind: 5mph
Humidity: 40%   Direction: 130°SE
Pressure: 30.01"   Gusts: NA
Location:  40.14°N, 120.95°W
Report Text: KCIC 230315Z AUTO 13004KT 10SM FEW018 FEW050 19/05 A3001 RMK AO1
Loading
Personal Weather Stations






























Interactive Weather Map
Tropical Storm Tracking
New forecast layout! Learn more

10-Day Weather Forecast

Advertisements
Track Severe Weather on mobile